Time;durP1;ratioP1;P1;durP2;ratioP2;P2;SDS_P1;SDS_P2;PMS_P1;PMS_P2;Temp;Humidity;BMP_temperature;BMP_pressure;BME280_temperature;BME280_humidity;BME280_pressure;Samples;Min_cycle;Max_cycle;Signal;HPM_P1;HPM_P2
2022/04/14 00:02:13;;;;;;;8.20;3.57;;;;;;;0.30;66.01;96263.88;1757290;82;20973;-68
2022/04/14 00:04:40;;;;;;;7.27;4.07;;;;;;;0.29;65.26;96255.65;1756881;82;21009;-68
2022/04/14 00:07:07;;;;;;;5.73;3.20;;;;;;;0.34;64.97;96254.95;1757160;82;20997;-67
2022/04/14 00:09:35;;;;;;;7.50;3.90;;;;;;;0.43;64.38;96248.76;1757279;82;21037;-68
2022/04/14 00:12:03;;;;;;;5.87;3.27;;;;;;;0.46;64.22;96241.91;1756998;82;21001;-68
2022/04/14 00:14:29;;;;;;;7.07;3.30;;;;;;;0.43;64.02;96243.56;1757115;82;21523;-68
2022/04/14 00:16:56;;;;;;;5.23;3.20;;;;;;;0.42;64.02;96239.19;1757077;82;20973;-68
2022/04/14 00:19:23;;;;;;;5.93;3.70;;;;;;;0.45;63.91;96240.12;1756997;82;21002;-68
2022/04/14 00:21:50;;;;;;;6.23;3.77;;;;;;;0.46;64.41;96256.18;1757084;81;21040;-68
2022/04/14 00:24:16;;;;;;;7.57;3.90;;;;;;;0.32;65.85;96248.82;1757259;82;20981;-68
2022/04/14 00:26:44;;;;;;;6.93;3.50;;;;;;;0.33;64.61;96241.52;1756952;82;21005;-68
2022/04/14 00:29:11;;;;;;;4.77;3.33;;;;;;;0.36;64.77;96236.41;1757046;82;21366;-68
2022/04/14 00:31:38;;;;;;;5.43;3.80;;;;;;;0.31;65.34;96239.71;1757028;82;21001;-68
2022/04/14 00:34:05;;;;;;;5.07;2.93;;;;;;;0.25;65.18;96229.99;1756984;82;21036;-68
2022/04/14 00:36:36;;;;;;;5.03;3.37;;;;;;;0.23;66.27;96229.09;1756923;82;21048;-68
2022/04/14 00:39:00;;;;;;;5.40;3.37;;;;;;;0.26;65.44;96229.60;1755789;81;21491;-68
2022/04/14 00:41:27;;;;;;;5.07;2.93;;;;;;;0.27;65.25;96228.75;1756815;82;21021;-68
2022/04/14 00:43:55;;;;;;;5.70;3.10;;;;;;;0.30;64.64;96220.63;1757333;82;21467;-68
2022/04/14 00:46:22;;;;;;;6.40;3.03;;;;;;;0.38;64.37;96227.39;1757110;82;21091;-68
2022/04/14 00:48:49;;;;;;;4.67;2.93;;;;;;;0.41;64.34;96230.95;1757217;81;21037;-68
2022/04/14 00:51:16;;;;;;;4.60;3.13;;;;;;;0.38;64.57;96224.80;1757195;82;21510;-68
2022/04/14 00:53:43;;;;;;;5.00;3.10;;;;;;;0.38;63.96;96230.86;1757259;82;21017;-68
2022/04/14 00:56:10;;;;;;;5.07;2.60;;;;;;;0.38;63.97;96221.77;1757232;82;20986;-68
2022/04/14 00:58:37;;;;;;;6.50;2.80;;;;;;;0.39;64.23;96216.16;1757205;82;21037;-68
2022/04/14 01:01:07;;;;;;;3.43;2.50;;;;;;;0.32;64.30;96207.72;1757121;82;21041;-68
2022/04/14 01:03:36;;;;;;;3.67;2.50;;;;;;;0.31;64.00;96204.25;1757330;82;21045;-68
2022/04/14 01:06:04;;;;;;;3.43;2.30;;;;;;;0.26;65.50;96214.03;1757141;82;20965;-68
2022/04/14 01:08:32;;;;;;;5.57;2.70;;;;;;;0.11;65.19;96204.92;1757092;82;21052;-68
2022/04/14 01:10:59;;;;;;;3.90;2.30;;;;;;;0.09;65.77;96200.52;1757391;82;21001;-68
2022/04/14 01:13:26;;;;;;;4.70;2.43;;;;;;;0.10;65.96;96205.77;1757245;82;21005;-68
2022/04/14 01:15:59;;;;;;;5.93;2.63;;;;;;;0.10;66.12;96208.75;1757124;82;21511;-68
2022/04/14 01:18:27;;;;;;;4.17;2.65;;;;;;;0.07;66.12;96210.84;1738347;82;21013;-68
2022/04/14 01:20:54;;;;;;;4.03;2.67;;;;;;;0.10;65.58;96211.35;1756957;82;21009;-68
2022/04/14 01:23:33;;;;;;;4.70;2.77;;;;;;;0.19;66.03;96209.92;1757105;82;21025;-68
2022/04/14 01:26:00;;;;;;;3.90;2.20;;;;;;;0.16;65.77;96208.54;1756948;81;20993;-68
2022/04/14 01:28:26;;;;;;;10.97;5.23;;;;;;;0.03;66.05;96207.70;1757136;82;21052;-68
2022/04/14 01:30:53;;;;;;;4.17;2.20;;;;;;;-0.11;68.03;96220.64;1757185;81;20981;-68
2022/04/14 01:33:19;;;;;;;6.57;2.83;;;;;;;-0.14;67.34;96225.73;1757277;81;21020;-68
2022/04/14 01:35:46;;;;;;;4.33;2.60;;;;;;;-0.11;66.63;96225.41;1756974;82;21000;-68
2022/04/14 01:38:13;;;;;;;5.03;2.73;;;;;;;-0.02;66.28;96215.75;1757206;81;21059;-68
2022/04/14 01:40:40;;;;;;;5.20;2.80;;;;;;;0.01;66.56;96219.73;1757205;82;20993;-68
2022/04/14 01:43:07;;;;;;;14.80;7.80;;;;;;;-0.04;66.68;96218.29;1757229;82;21001;-68
2022/04/14 01:45:33;;;;;;;18.83;8.00;;;;;;;-0.12;66.48;96214.58;1757318;81;21486;-68
2022/04/14 01:48:00;;;;;;;6.23;3.07;;;;;;;-0.20;67.02;96211.25;1757146;81;20994;-68
2022/04/14 01:50:27;;;;;;;4.57;2.50;;;;;;;-0.32;66.66;96213.92;1756981;82;20965;-68
2022/04/14 01:52:54;;;;;;;4.77;2.60;;;;;;;-0.26;66.97;96207.63;1757246;81;21511;-68
2022/04/14 01:55:21;;;;;;;9.77;5.47;;;;;;;-0.18;68.17;96206.58;1757294;82;20997;-68
2022/04/14 01:57:47;;;;;;;16.93;8.70;;;;;;;-0.19;68.49;96212.61;1757102;82;20989;-68
2022/04/14 02:00:16;;;;;;;5.50;3.00;;;;;;;-0.15;67.94;96213.19;1757222;82;21391;-68
2022/04/14 02:02:43;;;;;;;4.43;3.30;;;;;;;-0.15;67.59;96211.89;1757194;82;20981;-68
2022/04/14 02:05:10;;;;;;;5.60;2.93;;;;;;;-0.11;67.97;96220.64;1757000;82;20989;-68
2022/04/14 02:07:37;;;;;;;3.97;2.47;;;;;;;-0.14;68.62;96218.83;1757269;81;21009;-68
2022/04/14 02:10:04;;;;;;;5.67;2.33;;;;;;;-0.23;68.30;96222.41;1757201;82;20961;-68
2022/04/14 02:12:34;;;;;;;3.47;2.30;;;;;;;-0.30;68.51;96223.06;1756993;82;21024;-68
2022/04/14 02:15:01;;;;;;;4.73;1.90;;;;;;;-0.28;68.00;96219.69;1757228;82;21060;-68
2022/04/14 02:17:28;;;;;;;3.03;2.43;;;;;;;-0.23;67.54;96212.94;1757108;81;21001;-68
2022/04/14 02:19:55;;;;;;;3.53;2.20;;;;;;;-0.31;67.52;96212.20;1757166;82;21044;-68
2022/04/14 02:22:21;;;;;;;4.20;2.10;;;;;;;-0.31;67.35;96211.78;1756843;82;21025;-68
2022/04/14 02:24:48;;;;;;;4.23;2.40;;;;;;;-0.23;68.91;96214.23;1757206;82;20953;-68
2022/04/14 02:27:15;;;;;;;7.37;2.53;;;;;;;-0.19;68.25;96224.70;1757239;82;21016;-68
2022/04/14 02:29:43;;;;;;;4.00;2.40;;;;;;;-0.13;67.68;96216.68;1757346;82;21044;-68
2022/04/14 02:32:10;;;;;;;3.13;1.97;;;;;;;-0.09;67.45;96212.08;1757107;82;21025;-68
2022/04/14 02:34:36;;;;;;;4.97;2.30;;;;;;;-0.11;67.27;96218.92;1757266;81;21452;-68
2022/04/14 02:37:03;;;;;;;4.83;2.30;;;;;;;-0.12;67.10;96222.36;1757129;82;21052;-68
2022/04/14 02:39:31;;;;;;;4.60;2.57;;;;;;;-0.29;69.64;96226.98;1757027;82;21464;-68
2022/04/14 02:41:57;;;;;;;2.87;2.03;;;;;;;-0.34;70.29;96225.07;1757102;82;21001;-68
2022/04/14 02:44:24;;;;;;;9.57;3.77;;;;;;;-0.37;69.76;96221.96;1757245;82;20961;-68
2022/04/14 02:46:50;;;;;;;8.20;3.90;;;;;;;-0.33;69.54;96234.21;1757071;81;21021;-68
2022/04/14 02:49:16;;;;;;;2.60;2.30;;;;;;;-0.40;70.10;96229.64;1750022;81;21043;-68
2022/04/14 02:51:43;;;;;;;2.97;2.03;;;;;;;-0.39;69.02;96235.70;1748982;82;21060;-68
2022/04/14 02:54:09;;;;;;;4.47;2.60;;;;;;;-0.39;69.03;96232.69;1749043;82;20992;-68
2022/04/14 02:56:36;;;;;;;4.50;2.43;;;;;;;-0.36;68.73;96237.09;1749312;82;21113;-68
2022/04/14 02:59:03;;;;;;;4.20;2.23;;;;;;;-0.36;68.42;96232.78;1749271;81;20993;-68
2022/04/14 03:01:29;;;;;;;3.57;2.07;;;;;;;-0.36;68.52;96225.43;1749177;82;20966;-68
2022/04/14 03:03:56;;;;;;;3.80;2.57;;;;;;;-0.42;68.30;96222.22;1749333;82;21005;-68
2022/04/14 03:06:23;;;;;;;4.73;2.97;;;;;;;-0.42;68.56;96218.33;1749000;82;21452;-68
2022/04/14 03:08:49;;;;;;;5.30;1.87;;;;;;;-0.38;68.53;96214.99;1749074;82;20978;-68
2022/04/14 03:11:16;;;;;;;2.37;1.67;;;;;;;-0.41;68.46;96201.06;1749270;81;21005;-68
2022/04/14 03:13:42;;;;;;;3.40;2.40;;;;;;;-0.48;68.27;96199.96;1748994;82;21087;-68
2022/04/14 03:16:09;;;;;;;3.00;2.20;;;;;;;-0.40;68.30;96198.92;1748980;81;21072;-68
2022/04/14 03:18:36;;;;;;;4.17;2.20;;;;;;;-0.41;69.40;96198.47;1749144;82;21001;-68
2022/04/14 03:21:03;;;;;;;3.60;2.23;;;;;;;-0.51;69.43;96193.39;1748881;82;21048;-68
2022/04/14 03:23:30;;;;;;;4.57;2.57;;;;;;;-0.49;70.07;96195.63;1749254;82;20981;-68
2022/04/14 03:25:56;;;;;;;4.83;2.93;;;;;;;-0.55;69.04;96198.90;1749109;82;21049;-68
2022/04/14 03:28:23;;;;;;;5.93;2.50;;;;;;;-0.49;69.05;96194.33;1749094;82;20966;-69
2022/04/14 03:30:49;;;;;;;3.93;2.10;;;;;;;-0.54;69.35;96192.00;1749066;82;21491;-69
2022/04/14 03:33:16;;;;;;;4.27;2.60;;;;;;;-0.45;69.07;96185.84;1749235;82;21057;-68
2022/04/14 03:35:42;;;;;;;3.10;2.07;;;;;;;-0.35;68.87;96181.80;1749062;81;21045;-69
2022/04/14 03:38:09;;;;;;;2.50;1.80;;;;;;;-0.35;68.59;96180.51;1749122;81;21061;-68
2022/04/14 03:40:35;;;;;;;3.43;2.37;;;;;;;-0.37;68.60;96171.83;1749268;81;21061;-68
2022/04/14 03:43:02;;;;;;;6.63;2.80;;;;;;;-0.38;69.00;96176.52;1749202;81;21479;-68
2022/04/14 03:45:28;;;;;;;5.37;3.07;;;;;;;-0.38;69.40;96177.40;1749226;81;21005;-71
2022/04/14 03:47:54;;;;;;;5.43;2.77;;;;;;;-0.38;70.22;96172.63;1750464;81;21554;-71
2022/04/14 03:50:21;;;;;;;3.40;2.33;;;;;;;-0.36;70.07;96171.86;1756809;81;21057;-66
2022/04/14 03:52:47;;;;;;;3.27;2.07;;;;;;;-0.32;69.33;96176.74;1757089;82;21487;-67
2022/04/14 03:55:14;;;;;;;4.97;3.10;;;;;;;-0.24;68.92;96174.84;1757293;81;21005;-72
2022/04/14 03:57:40;;;;;;;4.50;2.70;;;;;;;-0.30;68.94;96176.38;1756911;81;21004;-67
2022/04/14 04:00:09;;;;;;;14.90;6.27;;;;;;;-0.33;68.96;96187.92;1757083;82;21013;-68
2022/04/14 04:02:36;;;;;;;4.80;2.30;;;;;;;-0.38;70.09;96185.60;1756973;82;21004;-67
2022/04/14 04:05:05;;;;;;;5.23;2.30;;;;;;;-0.48;69.96;96194.39;1757095;81;21522;-67
2022/04/14 04:07:31;;;;;;;5.20;2.00;;;;;;;-0.49;69.89;96202.98;1757035;82;20969;-67
2022/04/14 04:09:58;;;;;;;3.80;2.23;;;;;;;-0.40;69.56;96206.31;1757013;82;20989;-67
2022/04/14 04:12:24;;;;;;;3.80;2.10;;;;;;;-0.36;69.67;96202.97;1757146;82;21816;-67
2022/04/14 04:14:51;;;;;;;9.23;4.23;;;;;;;-0.27;69.40;96198.52;1757156;82;20973;-67
2022/04/14 04:17:18;;;;;;;3.67;2.47;;;;;;;-0.18;69.08;96197.92;1757179;82;21443;-67
2022/04/14 04:19:44;;;;;;;16.27;2.97;;;;;;;-0.15;69.03;96200.61;1757257;81;21016;-67
2022/04/14 04:22:11;;;;;;;4.00;2.80;;;;;;;-0.11;68.81;96204.65;1757262;82;20973;-67
2022/04/14 04:24:38;;;;;;;6.60;2.57;;;;;;;-0.11;68.53;96202.06;1757110;82;21064;-67
2022/04/14 04:27:05;;;;;;;14.97;10.57;;;;;;;-0.07;68.83;96206.52;1757363;82;20969;-67
2022/04/14 04:29:32;;;;;;;3.40;2.37;;;;;;;-0.02;69.67;96206.25;1757198;82;21021;-67
2022/04/14 04:31:59;;;;;;;4.23;2.37;;;;;;;-0.03;70.40;96212.67;1757147;82;21017;-67
2022/04/14 04:34:25;;;;;;;4.93;2.47;;;;;;;-0.01;70.63;96211.02;1757208;82;21018;-68
2022/04/14 04:36:52;;;;;;;37.70;20.93;;;;;;;0.13;70.60;96217.53;1757158;82;21073;-67
2022/04/14 04:39:19;;;;;;;53.70;29.97;;;;;;;0.22;70.56;96209.14;1757238;82;20993;-68
2022/04/14 04:41:46;;;;;;;42.30;26.17;;;;;;;0.34;70.20;96212.55;1757272;81;21000;-68
2022/04/14 04:44:12;;;;;;;29.53;16.03;;;;;;;0.45;70.00;96206.37;1757331;81;21009;-68
2022/04/14 04:46:39;;;;;;;27.67;14.60;;;;;;;0.53;69.61;96199.69;1757147;81;20989;-68
2022/04/14 04:49:05;;;;;;;21.60;11.93;;;;;;;0.67;69.30;96198.81;1757240;81;21016;-68
2022/04/14 04:51:31;;;;;;;22.90;14.20;;;;;;;0.76;69.98;96203.86;1757151;81;21016;-68
2022/04/14 04:53:58;;;;;;;26.30;13.93;;;;;;;0.88;69.52;96198.53;1757171;81;21044;-68
2022/04/14 04:56:25;;;;;;;24.17;13.70;;;;;;;1.05;70.37;96195.98;1757379;81;21009;-68
2022/04/14 04:58:52;;;;;;;16.07;8.63;;;;;;;1.14;69.50;96200.16;1757134;82;21005;-68
2022/04/14 05:01:18;;;;;;;18.50;10.73;;;;;;;1.22;69.56;96199.94;1757360;82;21032;-68
2022/04/14 05:03:45;;;;;;;19.70;10.50;;;;;;;1.34;68.37;96199.82;1757050;82;21312;-68
2022/04/14 05:06:11;;;;;;;29.33;14.50;;;;;;;1.53;68.55;96206.37;1757183;82;20953;-67
2022/04/14 05:08:38;;;;;;;29.90;16.33;;;;;;;1.58;70.52;96201.73;1757030;81;21033;-69
2022/04/14 05:11:04;;;;;;;29.47;16.53;;;;;;;1.69;69.82;96207.23;1756988;82;21017;-76
2022/04/14 05:13:31;;;;;;;24.27;12.57;;;;;;;1.81;68.72;96210.55;1756121;81;21060;-73
2022/04/14 05:15:58;;;;;;;18.83;11.30;;;;;;;1.93;68.21;96204.34;1755843;82;21064;-69
2022/04/14 05:18:24;;;;;;;18.50;11.33;;;;;;;2.06;67.57;96197.28;1755530;81;21064;-70
2022/04/14 05:20:50;;;;;;;14.10;9.10;;;;;;;2.22;67.54;96202.45;1756177;82;21076;-70
2022/04/14 05:23:17;;;;;;;17.10;9.77;;;;;;;2.34;66.39;96205.74;1755655;82;21605;-71
2022/04/14 05:25:44;;;;;;;15.37;10.03;;;;;;;2.47;65.54;96210.41;1756847;82;21008;-71
2022/04/14 05:28:10;;;;;;;17.23;10.67;;;;;;;2.60;65.83;96212.43;1757046;82;21005;-70
2022/04/14 05:30:36;;;;;;;17.70;13.13;;;;;;;2.78;65.48;96214.98;1756973;81;21004;-70
2022/04/14 05:33:05;;;;;;;15.37;8.80;;;;;;;2.94;64.57;96217.48;1757358;82;21048;-68
2022/04/14 05:35:31;;;;;;;14.93;8.97;;;;;;;3.11;64.45;96217.83;1756452;82;21084;-67
2022/04/14 05:37:58;;;;;;;14.10;11.00;;;;;;;3.25;64.44;96213.35;1756746;82;20985;-67
2022/04/14 05:40:25;;;;;;;17.10;10.87;;;;;;;3.42;63.64;96216.69;1757323;82;21033;-71
2022/04/14 05:42:52;;;;;;;12.83;7.87;;;;;;;3.55;63.63;96199.53;1756517;82;21036;-69
2022/04/14 05:45:20;;;;;;;13.70;7.57;;;;;;;3.73;63.40;96202.89;1755514;82;21056;-69
2022/04/14 05:47:47;;;;;;;12.03;6.80;;;;;;;3.89;63.16;96202.33;1756167;82;21036;-72
2022/04/14 05:50:14;;;;;;;12.23;7.80;;;;;;;4.05;62.56;96204.75;1748474;81;21179;-71
2022/04/14 05:52:42;;;;;;;13.03;7.43;;;;;;;4.18;61.46;96210.62;1747950;82;21005;-72
2022/04/14 05:55:09;;;;;;;17.83;9.90;;;;;;;4.26;61.18;96216.00;1748218;82;21059;-71
2022/04/14 05:57:36;;;;;;;20.53;10.87;;;;;;;4.37;60.88;96208.31;1748400;82;21400;-71
2022/04/14 06:00:05;;;;;;;19.30;11.00;;;;;;;4.49;60.95;96217.66;1748892;82;21036;-69
2022/04/14 06:02:32;;;;;;;26.70;11.40;;;;;;;4.60;60.97;96212.58;1748698;82;21025;-71
2022/04/14 06:04:59;;;;;;;15.57;7.87;;;;;;;4.72;59.54;96213.63;1748567;81;21044;-69
2022/04/14 06:07:25;;;;;;;18.70;7.03;;;;;;;4.88;59.83;96209.47;1708377;84;21585;-72
2022/04/14 06:09:52;;;;;;;17.53;7.13;;;;;;;5.05;59.33;96205.77;1747806;82;21079;-72
2022/04/14 06:12:18;;;;;;;17.03;7.10;;;;;;;5.20;59.49;96206.39;1746910;81;21063;-75
2022/04/14 06:14:46;;;;;;;16.60;6.20;;;;;;;5.33;58.79;96203.49;1709687;83;20986;-68
2022/04/14 06:17:12;;;;;;;12.43;5.20;;;;;;;5.48;59.02;96190.58;1749216;81;21505;-72
2022/04/14 06:19:39;;;;;;;17.97;7.50;;;;;;;5.67;58.46;96201.23;1713017;83;21042;-68
2022/04/14 06:22:05;;;;;;;15.60;7.47;;;;;;;5.79;58.24;96198.73;1748183;82;21043;-69
2022/04/14 06:24:32;;;;;;;11.97;4.07;;;;;;;5.93;57.93;96188.41;1712342;84;20982;-68
2022/04/14 06:26:59;;;;;;;12.17;7.93;;;;;;;6.10;56.69;96196.42;1713277;84;21050;-69
2022/04/14 06:29:25;;;;;;;15.33;12.37;;;;;;;6.26;57.26;96195.69;1749209;82;21051;-68
2022/04/14 06:31:52;;;;;;;24.27;10.73;;;;;;;6.44;56.81;96192.33;1748822;81;21138;-70
2022/04/14 06:34:18;;;;;;;22.73;8.03;;;;;;;6.59;56.47;96188.50;1748522;82;20979;-72
2022/04/14 06:36:45;;;;;;;25.13;8.20;;;;;;;6.76;56.30;96189.92;1749088;81;21021;-79
2022/04/14 06:39:12;;;;;;;19.07;8.53;;;;;;;6.92;56.37;96186.49;1708353;83;21341;-76
2022/04/14 06:41:39;;;;;;;34.07;11.60;;;;;;;7.10;56.20;96195.33;1713503;83;21062;-70
2022/04/14 06:44:07;;;;;;;27.87;12.73;;;;;;;7.27;56.06;96193.65;1713052;83;20983;-72
2022/04/14 06:46:33;;;;;;;27.37;12.80;;;;;;;7.45;54.81;96185.40;1716323;83;21021;-70
2022/04/14 06:49:00;;;;;;;22.37;11.13;;;;;;;7.59;53.85;96185.02;1715511;83;21030;-74
2022/04/14 06:51:26;;;;;;;20.77;11.10;;;;;;;7.76;53.75;96183.30;1697049;84;21014;-73
2022/04/14 06:53:53;;;;;;;22.43;9.80;;;;;;;7.92;53.74;96178.06;1719405;83;21042;-72
2022/04/14 06:56:20;;;;;;;28.60;19.97;;;;;;;8.10;53.75;96181.14;1719946;83;20995;-73
2022/04/14 06:58:46;;;;;;;17.13;10.87;;;;;;;8.30;53.34;96185.09;1720154;83;21059;-70
2022/04/14 07:01:13;;;;;;;23.63;9.43;;;;;;;8.49;53.47;96179.39;1719864;83;21623;-70
2022/04/14 07:03:40;;;;;;;19.53;7.80;;;;;;;8.66;53.14;96178.48;1720042;83;21062;-70
2022/04/14 07:06:07;;;;;;;16.20;6.60;;;;;;;8.87;52.64;96177.59;1719788;83;21529;-71
2022/04/14 07:08:33;;;;;;;11.07;6.70;;;;;;;9.07;52.10;96177.95;1719704;83;21034;-70
2022/04/14 07:11:01;;;;;;;9.47;4.87;;;;;;;9.26;52.11;96174.81;1719151;83;21051;-70
2022/04/14 07:13:28;;;;;;;9.27;3.77;;;;;;;9.44;50.07;96169.45;1719128;83;21189;-71
2022/04/14 07:15:55;;;;;;;7.90;4.53;;;;;;;9.62;47.76;96162.34;1718664;83;21062;-69
2022/04/14 07:18:23;;;;;;;5.00;3.30;;;;;;;9.83;45.75;96163.55;1718759;83;21109;-70
2022/04/14 07:20:49;;;;;;;8.27;5.00;;;;;;;10.04;45.95;96169.55;1718670;83;21098;-70
2022/04/14 07:23:16;;;;;;;8.10;4.87;;;;;;;10.22;46.41;96161.48;1718748;83;21536;-70
2022/04/14 07:25:43;;;;;;;6.53;3.40;;;;;;;10.43;47.04;96165.72;1719529;83;21071;-72
2022/04/14 07:28:10;;;;;;;6.30;3.67;;;;;;;10.64;45.70;96162.48;1714553;83;21078;-68
2022/04/14 07:30:39;;;;;;;6.23;3.57;;;;;;;10.81;44.88;96159.23;1717074;83;21076;-73
2022/04/14 07:33:06;;;;;;;7.80;4.37;;;;;;;11.00;43.63;96160.77;1714457;83;21559;-73
2022/04/14 07:35:33;;;;;;;6.73;3.63;;;;;;;11.22;42.69;96152.61;1709699;83;21035;-72
2022/04/14 07:38:00;;;;;;;5.63;3.27;;;;;;;11.42;39.08;96155.87;1712573;83;21073;-70
2022/04/14 07:40:27;;;;;;;8.60;4.10;;;;;;;11.60;39.86;96153.42;1712851;83;20987;-69
2022/04/14 07:42:57;;;;;;;5.70;2.60;;;;;;;11.77;39.43;96149.66;1710687;83;20988;-72
2022/04/14 07:45:24;;;;;;;4.97;2.30;;;;;;;11.92;39.27;96157.42;1706570;83;20972;-69
2022/04/14 07:47:51;;;;;;;3.73;1.97;;;;;;;12.05;33.49;96152.83;1712892;83;21015;-72
2022/04/14 07:50:20;;;;;;;3.00;2.13;;;;;;;12.14;35.79;96153.98;1707153;83;20980;-72
2022/04/14 07:52:56;;;;;;;2.70;2.00;;;;;;;12.29;34.69;96156.84;1695309;84;21027;-68
2022/04/14 07:55:26;;;;;;;5.83;2.53;;;;;;;12.43;33.74;96155.30;1710711;83;20966;-67
2022/04/14 07:57:56;;;;;;;4.37;2.30;;;;;;;12.59;32.55;96156.77;1716971;83;21021;-70
2022/04/14 08:00:24;;;;;;;4.70;3.13;;;;;;;12.72;33.24;96155.64;1756466;81;20974;-71
2022/04/14 08:02:58;;;;;;;5.17;3.40;;;;;;;12.85;34.42;96156.32;1756824;82;21006;-69
2022/04/14 08:05:37;;;;;;;5.20;1.93;;;;;;;13.01;31.76;96147.62;1756895;82;21602;-67
2022/04/14 08:08:13;;;;;;;4.17;2.03;;;;;;;13.13;29.36;96148.72;1755689;82;21555;-67
2022/04/14 08:10:42;;;;;;;4.87;1.87;;;;;;;13.17;29.37;96150.38;1756458;82;21073;-67
2022/04/14 08:13:09;;;;;;;2.53;1.60;;;;;;;13.27;27.49;96157.73;1756368;82;21029;-67
2022/04/14 08:15:36;;;;;;;3.35;2.00;;;;;;;13.38;28.71;96152.20;1756304;82;21516;-67
2022/04/14 08:18:06;;;;;;;3.87;2.33;;;;;;;13.46;29.02;96150.30;1756388;82;21019;-67
2022/04/14 08:20:39;;;;;;;2.95;1.80;;;;;;;13.65;30.67;96152.08;1756142;82;21049;-68
2022/04/14 08:23:06;;;;;;;3.77;1.55;;;;;;;13.88;31.08;96150.70;1755572;81;21065;-68
2022/04/14 08:25:35;;;;;;;2.70;1.37;;;;;;;14.10;27.80;96156.39;1756245;82;21104;-67
2022/04/14 08:28:06;;;;;;;4.03;1.85;;;;;;;14.24;24.88;96157.81;1756174;82;21068;-70
2022/04/14 08:30:36;;;;;;;3.25;2.33;;;;;;;14.33;25.22;96154.05;1756599;82;21017;-70
2022/04/14 08:33:13;;;;;;;3.20;1.67;;;;;;;14.37;23.96;96161.51;1756893;82;21022;-65
2022/04/14 08:35:40;;;;;;;2.37;1.50;;;;;;;14.51;25.08;96162.02;1720602;83;21011;-66
2022/04/14 08:38:08;;;;;;;2.65;1.60;;;;;;;14.64;24.80;96156.87;1756837;81;21016;-69
2022/04/14 08:40:39;;;;;;;3.77;1.67;;;;;;;14.80;25.26;96157.80;1721171;83;20955;-68
2022/04/14 08:43:09;;;;;;;3.15;1.70;;;;;;;14.95;25.55;96155.20;1757109;81;20971;-69
2022/04/14 08:45:47;;;;;;;3.12;1.90;;;;;;;15.07;25.20;96146.44;1756790;82;20999;-69
2022/04/14 08:48:15;;;;;;;4.30;1.85;;;;;;;15.08;22.59;96146.83;1756423;81;21016;-68
2022/04/14 08:50:44;;;;;;;3.95;2.12;;;;;;;15.15;23.37;96144.89;1760815;81;21446;-68
2022/04/14 08:53:11;;;;;;;3.55;1.82;;;;;;;15.25;22.63;96151.69;1762056;81;21093;-69
2022/04/14 08:55:42;;;;;;;2.80;1.92;;;;;;;15.44;26.85;96147.17;1698743;83;20987;-69
2022/04/14 08:58:14;;;;;;;2.47;1.67;;;;;;;15.53;24.25;96148.25;1726132;83;21054;-69
2022/04/14 09:00:42;;;;;;;3.50;1.65;;;;;;;15.69;22.96;96148.22;1724818;83;21025;-68
2022/04/14 09:03:08;;;;;;;5.03;2.00;;;;;;;15.87;24.84;96140.14;1725249;83;21157;-68
2022/04/14 09:05:37;;;;;;;2.85;1.87;;;;;;;16.04;25.24;96143.62;1726289;83;21049;-69
2022/04/14 09:08:05;;;;;;;3.10;1.50;;;;;;;16.11;24.03;96142.52;1726516;83;21002;-68
2022/04/14 09:10:31;;;;;;;2.62;1.70;;;;;;;16.23;24.30;96139.47;1726194;83;21078;-68
2022/04/14 09:12:58;;;;;;;2.90;1.60;;;;;;;16.37;24.55;96140.80;1726299;83;21050;-68
2022/04/14 09:15:27;;;;;;;5.15;1.45;;;;;;;16.38;21.89;96142.09;1726295;83;21571;-68
2022/04/14 09:17:55;;;;;;;2.92;1.75;;;;;;;16.51;21.11;96140.36;1726390;83;20970;-67
2022/04/14 09:20:37;;;;;;;3.72;1.60;;;;;;;16.40;21.90;96133.60;1725164;83;21168;-68
2022/04/14 09:23:18;;;;;;;2.98;1.55;;;;;;;16.46;19.89;96135.19;1725653;83;21527;-68
2022/04/14 09:25:46;;;;;;;2.87;1.85;;;;;;;16.62;23.18;96138.20;1725636;83;21787;-68
2022/04/14 09:28:15;;;;;;;5.62;2.00;;;;;;;16.80;23.84;96130.06;1726178;83;21018;-68
2022/04/14 09:31:02;;;;;;;3.20;2.22;;;;;;;16.90;24.08;96121.30;1726286;83;21012;-68
2022/04/14 09:33:31;;;;;;;4.25;1.67;;;;;;;17.01;24.00;96128.44;1725829;83;21524;-68
2022/04/14 09:36:13;;;;;;;3.95;1.57;;;;;;;17.17;24.45;96124.78;1726606;83;21011;-68
2022/04/14 09:38:56;;;;;;;3.35;1.60;;;;;;;17.35;21.03;96120.10;1726382;83;20994;-68
2022/04/14 09:41:29;;;;;;;;;;;;;;;17.51;21.64;96118.62;1729056;83;21520;-68
2022/04/14 09:44:01;;;;;;;4.83;1.98;;;;;;;17.68;23.76;96119.30;1726507;83;20126;-68
2022/04/14 09:46:29;;;;;;;6.60;1.95;;;;;;;17.83;23.70;96117.01;1726482;83;20989;-68
2022/04/14 09:49:11;;;;;;;2.98;1.90;;;;;;;17.99;21.91;96114.59;1726459;83;21479;-68
2022/04/14 09:51:50;;;;;;;3.22;1.80;;;;;;;17.92;18.87;96106.84;1713305;83;21026;-68
2022/04/14 09:54:20;;;;;;;3.30;1.65;;;;;;;18.03;21.52;96111.75;1713339;84;21022;-68
2022/04/14 09:56:52;;;;;;;5.70;2.00;;;;;;;18.15;20.71;96104.59;1692043;84;21568;-68
2022/04/14 09:59:22;;;;;;;4.28;1.80;;;;;;;18.29;21.57;96100.48;1691852;84;20995;-68
2022/04/14 10:02:10;;;;;;;2.87;1.92;;;;;;;18.42;21.86;96108.42;1713206;84;21026;-68
2022/04/14 10:04:41;;;;;;;16.30;2.70;;;;;;;18.45;20.13;96104.75;1713104;84;21144;-68
2022/04/14 10:07:16;;;;;;;3.00;1.67;;;;;;;18.54;21.38;96100.34;1713186;83;21018;-68
2022/04/14 10:09:48;;;;;;;3.37;2.02;;;;;;;18.76;21.68;96093.66;1713166;83;21011;-68
2022/04/14 10:12:26;;;;;;;3.87;2.10;;;;;;;18.82;20.60;96098.72;1713152;83;21454;-68
2022/04/14 10:15:07;;;;;;;2.20;1.72;;;;;;;18.96;22.19;96086.11;1713035;84;21623;-67
2022/04/14 10:17:40;;;;;;;4.17;2.10;;;;;;;19.06;20.25;96094.60;1713496;84;20982;-67
2022/04/14 10:20:09;;;;;;;;;;;;;;;18.87;19.42;96084.69;1715925;84;21029;-67
2022/04/14 10:22:37;;;;;;;3.08;2.10;;;;;;;18.90;20.27;96093.05;1712573;84;20115;-67
2022/04/14 10:25:07;;;;;;;4.35;1.67;;;;;;;19.05;21.03;96081.70;1713194;84;21496;-67
2022/04/14 10:27:39;;;;;;;3.10;1.80;;;;;;;18.94;20.21;96090.17;1713489;84;20979;-68
2022/04/14 10:30:07;;;;;;;3.77;1.98;;;;;;;19.00;20.45;96085.91;1712827;84;21131;-67
2022/04/14 10:32:35;;;;;;;3.02;1.70;;;;;;;19.24;21.44;96087.95;1713407;84;21469;-68
2022/04/14 10:35:04;;;;;;;2.92;1.98;;;;;;;19.43;21.01;96083.13;1713495;84;20980;-68
2022/04/14 10:37:36;;;;;;;3.20;1.87;;;;;;;19.58;18.48;96084.20;1691824;84;21445;-68
2022/04/14 10:40:04;;;;;;;3.30;1.80;;;;;;;19.52;18.81;96073.78;1713332;84;21054;-68
2022/04/14 10:42:32;;;;;;;4.75;2.00;;;;;;;19.60;18.54;96078.30;1713783;84;21394;-68
2022/04/14 10:44:59;;;;;;;2.17;1.50;;;;;;;19.72;18.64;96073.75;1713061;84;21509;-68
2022/04/14 10:47:46;;;;;;;3.80;2.00;;;;;;;19.76;21.15;96067.80;1713338;84;21073;-68
2022/04/14 10:50:34;;;;;;;3.87;2.10;;;;;;;19.80;19.86;96076.93;1715195;83;21114;-68
2022/04/14 10:53:08;;;;;;;3.50;1.85;;;;;;;19.72;18.60;96076.91;1721086;83;21026;-68
2022/04/14 10:55:39;;;;;;;4.08;2.00;;;;;;;19.62;18.86;96077.77;1720632;83;21524;-68
2022/04/14 10:58:08;;;;;;;6.87;2.00;;;;;;;19.54;20.41;96083.95;1721034;83;21022;-68
2022/04/14 11:00:36;;;;;;;3.87;2.30;;;;;;;19.57;20.82;96078.45;1692845;83;20967;-68
2022/04/14 11:03:11;;;;;;;4.45;2.50;;;;;;;19.63;21.65;96081.73;1720978;83;21014;-68
2022/04/14 11:05:45;;;;;;;4.00;1.75;;;;;;;19.70;20.13;96083.66;1720720;83;21047;-68
2022/04/14 11:08:31;;;;;;;4.67;2.10;;;;;;;19.57;20.37;96083.33;1721176;83;21022;-68
2022/04/14 11:11:14;;;;;;;3.35;1.80;;;;;;;19.65;22.78;96082.53;1720841;83;21026;-68
2022/04/14 11:13:57;;;;;;;3.00;1.95;;;;;;;19.75;19.86;96077.63;1720682;83;21792;-68
2022/04/14 11:16:45;;;;;;;2.95;1.95;;;;;;;19.88;20.07;96077.91;1721176;83;21030;-68
2022/04/14 11:19:26;;;;;;;2.90;2.27;;;;;;;19.83;19.66;96075.92;1721040;83;21588;-68
2022/04/14 11:22:02;;;;;;;3.65;2.35;;;;;;;19.97;22.07;96073.94;1720748;83;21054;-68
2022/04/14 11:24:41;;;;;;;3.35;2.12;;;;;;;20.28;22.21;96078.66;1720952;83;21530;-71
2022/04/14 11:27:18;;;;;;;6.78;2.50;;;;;;;20.79;21.17;96070.34;1720819;83;20998;-70
2022/04/14 11:29:49;;;;;;;3.47;2.27;;;;;;;21.24;21.46;96065.30;1721010;83;21058;-71
2022/04/14 11:32:36;;;;;;;4.15;2.58;;;;;;;21.70;19.31;96064.21;1720032;83;21002;-70
2022/04/14 11:35:16;;;;;;;4.33;2.55;;;;;;;22.16;20.27;96065.65;1720702;83;21058;-70
2022/04/14 11:37:49;;;;;;;3.95;2.80;;;;;;;22.48;21.00;96066.52;1720976;83;21018;-70
2022/04/14 11:40:22;;;;;;;6.95;2.80;;;;;;;22.47;17.01;96064.29;1720794;83;21033;-70
2022/04/14 11:42:54;;;;;;;4.20;2.27;;;;;;;22.83;16.89;96055.48;1721078;83;21002;-71